sensor_id;sensor_type;location;lat;lon;timestamp;P1;durP1;ratioP1;P2;durP2;ratioP2
36575;SDS011;45700;50.930;5.168;2023-07-30T00:01:21;2.22;;;1.23;;
36575;SDS011;45700;50.930;5.168;2023-07-30T00:05:22;2.22;;;1.25;;
36575;SDS011;45700;50.930;5.168;2023-07-30T00:09:23;3.25;;;1.50;;
36575;SDS011;45700;50.930;5.168;2023-07-30T00:13:24;4.32;;;1.50;;
36575;SDS011;45700;50.930;5.168;2023-07-30T00:17:25;6.30;;;1.35;;
36575;SDS011;45700;50.930;5.168;2023-07-30T00:21:26;2.65;;;1.42;;
36575;SDS011;45700;50.930;5.168;2023-07-30T00:25:27;2.83;;;1.30;;
36575;SDS011;45700;50.930;5.168;2023-07-30T00:29:28;4.63;;;1.50;;
36575;SDS011;45700;50.930;5.168;2023-07-30T00:33:29;8.52;;;1.42;;
36575;SDS011;45700;50.930;5.168;2023-07-30T00:37:30;3.83;;;1.27;;
36575;SDS011;45700;50.930;5.168;2023-07-30T00:41:31;7.55;;;1.73;;
36575;SDS011;45700;50.930;5.168;2023-07-30T00:45:32;5.53;;;1.35;;
36575;SDS011;45700;50.930;5.168;2023-07-30T00:49:33;6.65;;;1.30;;
36575;SDS011;45700;50.930;5.168;2023-07-30T00:53:35;3.85;;;1.55;;
36575;SDS011;45700;50.930;5.168;2023-07-30T00:57:37;3.63;;;1.40;;
36575;SDS011;45700;50.930;5.168;2023-07-30T01:01:38;5.05;;;1.50;;
36575;SDS011;45700;50.930;5.168;2023-07-30T01:05:43;3.08;;;1.23;;
36575;SDS011;45700;50.930;5.168;2023-07-30T01:09:44;2.53;;;1.20;;
36575;SDS011;45700;50.930;5.168;2023-07-30T01:13:45;5.53;;;1.92;;
36575;SDS011;45700;50.930;5.168;2023-07-30T01:17:46;5.10;;;1.30;;
36575;SDS011;45700;50.930;5.168;2023-07-30T01:21:47;3.90;;;1.23;;
36575;SDS011;45700;50.930;5.168;2023-07-30T01:25:48;6.57;;;2.00;;
36575;SDS011;45700;50.930;5.168;2023-07-30T01:29:59;6.65;;;1.65;;
36575;SDS011;45700;50.930;5.168;2023-07-30T01:34:02;4.18;;;1.75;;
36575;SDS011;45700;50.930;5.168;2023-07-30T01:38:04;4.15;;;1.42;;
36575;SDS011;45700;50.930;5.168;2023-07-30T01:42:05;6.88;;;1.80;;
36575;SDS011;45700;50.930;5.168;2023-07-30T01:46:06;5.05;;;1.48;;
36575;SDS011;45700;50.930;5.168;2023-07-30T01:50:07;5.30;;;1.70;;
36575;SDS011;45700;50.930;5.168;2023-07-30T01:54:09;7.72;;;1.35;;
36575;SDS011;45700;50.930;5.168;2023-07-30T01:58:10;2.30;;;1.67;;
36575;SDS011;45700;50.930;5.168;2023-07-30T02:02:10;3.17;;;1.58;;
36575;SDS011;45700;50.930;5.168;2023-07-30T02:06:11;5.85;;;1.70;;
36575;SDS011;45700;50.930;5.168;2023-07-30T02:10:13;7.97;;;1.90;;
36575;SDS011;45700;50.930;5.168;2023-07-30T02:14:14;5.88;;;1.83;;
36575;SDS011;45700;50.930;5.168;2023-07-30T02:18:15;6.57;;;1.98;;
36575;SDS011;45700;50.930;5.168;2023-07-30T02:22:16;4.85;;;1.58;;
36575;SDS011;45700;50.930;5.168;2023-07-30T02:26:17;8.73;;;1.38;;
36575;SDS011;45700;50.930;5.168;2023-07-30T02:30:17;5.65;;;1.40;;
36575;SDS011;45700;50.930;5.168;2023-07-30T02:34:18;13.07;;;1.63;;
36575;SDS011;45700;50.930;5.168;2023-07-30T02:38:19;7.28;;;1.67;;
36575;SDS011;45700;50.930;5.168;2023-07-30T02:42:20;6.32;;;1.45;;
36575;SDS011;45700;50.930;5.168;2023-07-30T02:46:21;10.00;;;1.67;;
36575;SDS011;45700;50.930;5.168;2023-07-30T02:50:22;6.57;;;1.50;;
36575;SDS011;45700;50.930;5.168;2023-07-30T02:54:23;7.18;;;1.27;;
36575;SDS011;45700;50.930;5.168;2023-07-30T02:58:24;7.15;;;1.58;;
36575;SDS011;45700;50.930;5.168;2023-07-30T03:02:25;5.10;;;1.30;;
36575;SDS011;45700;50.930;5.168;2023-07-30T03:06:26;6.18;;;1.10;;
36575;SDS011;45700;50.930;5.168;2023-07-30T03:10:27;5.13;;;1.42;;
36575;SDS011;45700;50.930;5.168;2023-07-30T03:14:29;5.32;;;1.75;;
36575;SDS011;45700;50.930;5.168;2023-07-30T03:18:30;7.55;;;1.42;;
36575;SDS011;45700;50.930;5.168;2023-07-30T03:22:31;11.15;;;1.58;;
36575;SDS011;45700;50.930;5.168;2023-07-30T03:26:32;8.07;;;1.40;;
36575;SDS011;45700;50.930;5.168;2023-07-30T03:30:33;4.22;;;1.27;;
36575;SDS011;45700;50.930;5.168;2023-07-30T03:34:34;5.85;;;1.10;;
36575;SDS011;45700;50.930;5.168;2023-07-30T03:38:34;10.35;;;1.50;;
36575;SDS011;45700;50.930;5.168;2023-07-30T03:42:35;6.20;;;0.90;;
36575;SDS011;45700;50.930;5.168;2023-07-30T03:46:36;3.20;;;0.80;;
36575;SDS011;45700;50.930;5.168;2023-07-30T03:50:37;10.77;;;1.40;;
36575;SDS011;45700;50.930;5.168;2023-07-30T03:54:38;5.10;;;1.00;;
36575;SDS011;45700;50.930;5.168;2023-07-30T03:58:39;3.92;;;1.00;;
36575;SDS011;45700;50.930;5.168;2023-07-30T04:02:40;3.50;;;0.88;;
36575;SDS011;45700;50.930;5.168;2023-07-30T04:06:41;4.35;;;0.93;;
36575;SDS011;45700;50.930;5.168;2023-07-30T04:10:42;4.60;;;1.13;;
36575;SDS011;45700;50.930;5.168;2023-07-30T04:14:43;3.40;;;0.73;;
36575;SDS011;45700;50.930;5.168;2023-07-30T04:18:44;3.85;;;0.75;;
36575;SDS011;45700;50.930;5.168;2023-07-30T04:22:45;1.98;;;0.60;;
36575;SDS011;45700;50.930;5.168;2023-07-30T04:26:46;2.25;;;0.68;;
36575;SDS011;45700;50.930;5.168;2023-07-30T04:30:47;3.33;;;0.80;;
36575;SDS011;45700;50.930;5.168;2023-07-30T04:34:49;3.25;;;0.98;;
36575;SDS011;45700;50.930;5.168;2023-07-30T04:38:50;5.82;;;0.77;;
36575;SDS011;45700;50.930;5.168;2023-07-30T04:42:51;8.70;;;1.30;;
36575;SDS011;45700;50.930;5.168;2023-07-30T04:46:52;3.60;;;0.77;;
36575;SDS011;45700;50.930;5.168;2023-07-30T04:50:53;3.83;;;0.90;;
36575;SDS011;45700;50.930;5.168;2023-07-30T04:54:54;5.93;;;0.90;;
36575;SDS011;45700;50.930;5.168;2023-07-30T04:58:55;8.90;;;1.13;;
36575;SDS011;45700;50.930;5.168;2023-07-30T05:02:56;5.15;;;1.30;;
36575;SDS011;45700;50.930;5.168;2023-07-30T05:06:57;5.25;;;1.20;;
36575;SDS011;45700;50.930;5.168;2023-07-30T05:10:58;6.00;;;1.13;;
36575;SDS011;45700;50.930;5.168;2023-07-30T05:14:59;2.88;;;1.08;;
36575;SDS011;45700;50.930;5.168;2023-07-30T05:19:00;8.10;;;1.15;;
36575;SDS011;45700;50.930;5.168;2023-07-30T05:23:01;4.82;;;0.80;;
36575;SDS011;45700;50.930;5.168;2023-07-30T05:27:02;9.48;;;1.20;;
36575;SDS011;45700;50.930;5.168;2023-07-30T05:31:03;5.80;;;1.33;;
36575;SDS011;45700;50.930;5.168;2023-07-30T05:35:04;5.90;;;1.10;;
36575;SDS011;45700;50.930;5.168;2023-07-30T05:39:05;4.13;;;1.10;;
36575;SDS011;45700;50.930;5.168;2023-07-30T05:43:06;5.53;;;1.25;;
36575;SDS011;45700;50.930;5.168;2023-07-30T05:47:07;2.25;;;0.70;;
36575;SDS011;45700;50.930;5.168;2023-07-30T05:51:08;3.53;;;1.00;;
36575;SDS011;45700;50.930;5.168;2023-07-30T05:55:09;5.30;;;1.45;;
36575;SDS011;45700;50.930;5.168;2023-07-30T05:59:10;4.53;;;1.08;;
36575;SDS011;45700;50.930;5.168;2023-07-30T06:03:11;4.90;;;0.95;;
36575;SDS011;45700;50.930;5.168;2023-07-30T06:07:12;4.65;;;1.02;;
36575;SDS011;45700;50.930;5.168;2023-07-30T06:11:13;7.65;;;0.95;;
36575;SDS011;45700;50.930;5.168;2023-07-30T06:15:14;8.30;;;1.30;;
36575;SDS011;45700;50.930;5.168;2023-07-30T06:19:15;9.82;;;1.40;;
36575;SDS011;45700;50.930;5.168;2023-07-30T06:23:16;4.35;;;1.17;;
36575;SDS011;45700;50.930;5.168;2023-07-30T06:27:17;5.78;;;0.88;;
36575;SDS011;45700;50.930;5.168;2023-07-30T06:31:19;6.10;;;1.23;;
36575;SDS011;45700;50.930;5.168;2023-07-30T06:35:20;7.47;;;1.40;;
36575;SDS011;45700;50.930;5.168;2023-07-30T06:39:21;6.72;;;1.60;;
36575;SDS011;45700;50.930;5.168;2023-07-30T06:43:22;8.30;;;0.90;;
36575;SDS011;45700;50.930;5.168;2023-07-30T06:47:23;9.30;;;1.50;;
36575;SDS011;45700;50.930;5.168;2023-07-30T06:51:24;5.93;;;0.98;;
36575;SDS011;45700;50.930;5.168;2023-07-30T06:55:26;4.32;;;1.20;;
36575;SDS011;45700;50.930;5.168;2023-07-30T06:59:26;9.50;;;1.27;;
36575;SDS011;45700;50.930;5.168;2023-07-30T07:03:27;9.45;;;1.92;;
36575;SDS011;45700;50.930;5.168;2023-07-30T07:07:29;6.45;;;1.25;;
36575;SDS011;45700;50.930;5.168;2023-07-30T07:11:30;6.07;;;1.33;;
36575;SDS011;45700;50.930;5.168;2023-07-30T07:15:31;13.80;;;1.38;;
36575;SDS011;45700;50.930;5.168;2023-07-30T07:19:32;4.38;;;1.13;;
36575;SDS011;45700;50.930;5.168;2023-07-30T07:23:36;13.68;;;1.65;;
36575;SDS011;45700;50.930;5.168;2023-07-30T07:27:37;6.05;;;1.38;;
36575;SDS011;45700;50.930;5.168;2023-07-30T07:31:38;8.32;;;1.65;;
36575;SDS011;45700;50.930;5.168;2023-07-30T07:35:39;9.27;;;1.40;;
36575;SDS011;45700;50.930;5.168;2023-07-30T07:39:41;7.85;;;1.45;;
36575;SDS011;45700;50.930;5.168;2023-07-30T07:43:45;6.05;;;1.48;;
36575;SDS011;45700;50.930;5.168;2023-07-30T07:47:47;10.50;;;1.30;;
36575;SDS011;45700;50.930;5.168;2023-07-30T07:51:48;7.28;;;1.40;;
36575;SDS011;45700;50.930;5.168;2023-07-30T07:55:49;10.80;;;2.40;;
36575;SDS011;45700;50.930;5.168;2023-07-30T07:59:50;8.68;;;1.67;;
36575;SDS011;45700;50.930;5.168;2023-07-30T08:03:51;6.97;;;1.48;;
36575;SDS011;45700;50.930;5.168;2023-07-30T08:07:52;7.28;;;1.20;;
36575;SDS011;45700;50.930;5.168;2023-07-30T08:11:53;11.23;;;1.20;;
36575;SDS011;45700;50.930;5.168;2023-07-30T08:15:54;6.82;;;1.60;;
36575;SDS011;45700;50.930;5.168;2023-07-30T08:19:55;10.35;;;1.75;;
36575;SDS011;45700;50.930;5.168;2023-07-30T08:23:56;9.45;;;1.52;;
36575;SDS011;45700;50.930;5.168;2023-07-30T08:27:57;6.63;;;1.13;;
36575;SDS011;45700;50.930;5.168;2023-07-30T08:31:58;6.85;;;0.73;;
36575;SDS011;45700;50.930;5.168;2023-07-30T08:35:59;5.80;;;1.30;;
36575;SDS011;45700;50.930;5.168;2023-07-30T08:40:00;5.95;;;1.02;;
36575;SDS011;45700;50.930;5.168;2023-07-30T08:44:01;5.38;;;1.25;;
36575;SDS011;45700;50.930;5.168;2023-07-30T08:48:02;8.77;;;1.17;;
36575;SDS011;45700;50.930;5.168;2023-07-30T08:52:03;3.63;;;0.77;;
36575;SDS011;45700;50.930;5.168;2023-07-30T08:56:05;3.10;;;1.00;;
36575;SDS011;45700;50.930;5.168;2023-07-30T09:00:06;4.50;;;0.85;;
36575;SDS011;45700;50.930;5.168;2023-07-30T09:04:08;5.03;;;1.05;;
36575;SDS011;45700;50.930;5.168;2023-07-30T09:08:09;4.55;;;0.93;;
36575;SDS011;45700;50.930;5.168;2023-07-30T09:12:14;8.23;;;1.00;;
36575;SDS011;45700;50.930;5.168;2023-07-30T09:16:15;4.80;;;1.45;;
36575;SDS011;45700;50.930;5.168;2023-07-30T09:20:16;3.72;;;0.55;;
36575;SDS011;45700;50.930;5.168;2023-07-30T09:24:21;1.88;;;0.63;;
36575;SDS011;45700;50.930;5.168;2023-07-30T09:28:22;4.93;;;1.05;;
36575;SDS011;45700;50.930;5.168;2023-07-30T09:32:31;2.38;;;0.70;;
36575;SDS011;45700;50.930;5.168;2023-07-30T09:36:33;7.57;;;1.00;;
36575;SDS011;45700;50.930;5.168;2023-07-30T09:40:34;5.93;;;1.00;;
36575;SDS011;45700;50.930;5.168;2023-07-30T09:44:37;2.83;;;1.02;;
36575;SDS011;45700;50.930;5.168;2023-07-30T09:48:39;7.40;;;0.93;;
36575;SDS011;45700;50.930;5.168;2023-07-30T09:52:40;5.93;;;1.13;;
36575;SDS011;45700;50.930;5.168;2023-07-30T09:56:41;5.00;;;0.95;;
36575;SDS011;45700;50.930;5.168;2023-07-30T10:00:43;1.77;;;0.60;;
36575;SDS011;45700;50.930;5.168;2023-07-30T10:04:46;3.13;;;0.50;;
36575;SDS011;45700;50.930;5.168;2023-07-30T10:08:48;4.20;;;0.40;;
36575;SDS011;45700;50.930;5.168;2023-07-30T10:12:50;0.68;;;0.50;;
36575;SDS011;45700;50.930;5.168;2023-07-30T10:16:53;1.35;;;0.60;;
36575;SDS011;45700;50.930;5.168;2023-07-30T10:20:54;4.43;;;1.15;;
36575;SDS011;45700;50.930;5.168;2023-07-30T10:24:57;3.20;;;0.52;;
36575;SDS011;45700;50.930;5.168;2023-07-30T10:29:11;1.70;;;0.60;;
36575;SDS011;45700;50.930;5.168;2023-07-30T10:33:12;3.95;;;0.73;;
36575;SDS011;45700;50.930;5.168;2023-07-30T10:37:22;4.40;;;0.80;;
36575;SDS011;45700;50.930;5.168;2023-07-30T10:41:25;2.08;;;1.13;;
36575;SDS011;45700;50.930;5.168;2023-07-30T10:45:26;7.57;;;0.90;;
36575;SDS011;45700;50.930;5.168;2023-07-30T10:49:27;9.00;;;1.15;;
36575;SDS011;45700;50.930;5.168;2023-07-30T10:53:29;6.22;;;1.17;;
36575;SDS011;45700;50.930;5.168;2023-07-30T10:57:30;5.07;;;1.00;;
36575;SDS011;45700;50.930;5.168;2023-07-30T11:01:41;3.70;;;0.60;;
36575;SDS011;45700;50.930;5.168;2023-07-30T11:05:45;4.23;;;1.07;;
36575;SDS011;45700;50.930;5.168;2023-07-30T11:09:47;5.45;;;0.80;;
36575;SDS011;45700;50.930;5.168;2023-07-30T11:13:58;3.75;;;1.35;;
36575;SDS011;45700;50.930;5.168;2023-07-30T11:17:59;2.00;;;1.02;;
36575;SDS011;45700;50.930;5.168;2023-07-30T11:22:00;2.90;;;1.20;;
36575;SDS011;45700;50.930;5.168;2023-07-30T11:26:03;2.83;;;1.05;;
36575;SDS011;45700;50.930;5.168;2023-07-30T11:30:04;5.05;;;1.40;;
36575;SDS011;45700;50.930;5.168;2023-07-30T11:34:05;5.00;;;0.82;;
36575;SDS011;45700;50.930;5.168;2023-07-30T11:38:06;6.93;;;1.08;;
36575;SDS011;45700;50.930;5.168;2023-07-30T11:42:08;3.58;;;0.73;;
36575;SDS011;45700;50.930;5.168;2023-07-30T11:46:13;8.15;;;1.38;;
36575;SDS011;45700;50.930;5.168;2023-07-30T11:50:15;2.38;;;0.80;;
36575;SDS011;45700;50.930;5.168;2023-07-30T11:54:22;10.20;;;1.35;;
36575;SDS011;45700;50.930;5.168;2023-07-30T11:58:24;3.00;;;0.98;;
36575;SDS011;45700;50.930;5.168;2023-07-30T12:02:29;1.90;;;0.70;;
36575;SDS011;45700;50.930;5.168;2023-07-30T12:06:45;4.50;;;0.80;;
36575;SDS011;45700;50.930;5.168;2023-07-30T12:10:46;4.03;;;0.85;;
36575;SDS011;45700;50.930;5.168;2023-07-30T12:18:50;5.60;;;0.73;;
36575;SDS011;45700;50.930;5.168;2023-07-30T12:22:51;4.25;;;0.85;;
36575;SDS011;45700;50.930;5.168;2023-07-30T12:26:52;3.88;;;0.90;;
36575;SDS011;45700;50.930;5.168;2023-07-30T12:30:53;6.47;;;1.85;;
36575;SDS011;45700;50.930;5.168;2023-07-30T12:34:54;1.63;;;0.90;;
36575;SDS011;45700;50.930;5.168;2023-07-30T12:38:55;4.20;;;0.80;;
36575;SDS011;45700;50.930;5.168;2023-07-30T12:42:56;5.55;;;0.80;;
36575;SDS011;45700;50.930;5.168;2023-07-30T12:46:57;2.40;;;0.70;;
36575;SDS011;45700;50.930;5.168;2023-07-30T12:50:58;2.72;;;0.85;;
36575;SDS011;45700;50.930;5.168;2023-07-30T12:55:00;3.33;;;0.55;;
36575;SDS011;45700;50.930;5.168;2023-07-30T12:59:01;5.57;;;1.10;;
36575;SDS011;45700;50.930;5.168;2023-07-30T13:03:02;1.10;;;0.77;;
36575;SDS011;45700;50.930;5.168;2023-07-30T13:07:03;1.55;;;0.60;;
36575;SDS011;45700;50.930;5.168;2023-07-30T13:11:04;4.28;;;1.25;;
36575;SDS011;45700;50.930;5.168;2023-07-30T13:15:05;2.72;;;0.60;;
36575;SDS011;45700;50.930;5.168;2023-07-30T13:19:06;4.30;;;1.05;;
36575;SDS011;45700;50.930;5.168;2023-07-30T13:23:07;3.22;;;0.60;;
36575;SDS011;45700;50.930;5.168;2023-07-30T13:27:08;2.10;;;0.68;;
36575;SDS011;45700;50.930;5.168;2023-07-30T13:31:09;9.07;;;0.95;;
36575;SDS011;45700;50.930;5.168;2023-07-30T13:35:10;1.42;;;0.70;;
36575;SDS011;45700;50.930;5.168;2023-07-30T13:39:11;2.88;;;0.60;;
36575;SDS011;45700;50.930;5.168;2023-07-30T13:43:12;5.90;;;1.35;;
36575;SDS011;45700;50.930;5.168;2023-07-30T13:47:13;1.33;;;1.05;;
36575;SDS011;45700;50.930;5.168;2023-07-30T13:51:14;1.08;;;0.60;;
36575;SDS011;45700;50.930;5.168;2023-07-30T13:55:15;5.40;;;0.65;;
36575;SDS011;45700;50.930;5.168;2023-07-30T13:59:16;3.67;;;0.77;;
36575;SDS011;45700;50.930;5.168;2023-07-30T14:03:17;4.75;;;0.60;;
36575;SDS011;45700;50.930;5.168;2023-07-30T14:07:18;3.08;;;0.88;;
36575;SDS011;45700;50.930;5.168;2023-07-30T14:11:19;3.92;;;0.60;;
36575;SDS011;45700;50.930;5.168;2023-07-30T14:15:20;1.30;;;0.55;;
36575;SDS011;45700;50.930;5.168;2023-07-30T14:19:22;1.25;;;0.77;;
36575;SDS011;45700;50.930;5.168;2023-07-30T14:23:23;2.85;;;0.70;;
36575;SDS011;45700;50.930;5.168;2023-07-30T14:27:24;3.70;;;0.75;;
36575;SDS011;45700;50.930;5.168;2023-07-30T14:31:26;2.08;;;0.80;;
36575;SDS011;45700;50.930;5.168;2023-07-30T14:35:27;2.47;;;1.10;;
36575;SDS011;45700;50.930;5.168;2023-07-30T14:39:28;3.40;;;0.60;;
36575;SDS011;45700;50.930;5.168;2023-07-30T14:43:29;2.90;;;0.82;;
36575;SDS011;45700;50.930;5.168;2023-07-30T14:47:30;2.50;;;0.70;;
36575;SDS011;45700;50.930;5.168;2023-07-30T14:51:31;5.32;;;0.90;;
36575;SDS011;45700;50.930;5.168;2023-07-30T14:55:32;1.65;;;0.57;;
36575;SDS011;45700;50.930;5.168;2023-07-30T14:59:33;4.25;;;0.82;;
36575;SDS011;45700;50.930;5.168;2023-07-30T15:03:35;6.00;;;1.25;;
36575;SDS011;45700;50.930;5.168;2023-07-30T15:07:36;3.83;;;1.27;;
36575;SDS011;45700;50.930;5.168;2023-07-30T15:11:37;2.78;;;0.80;;
36575;SDS011;45700;50.930;5.168;2023-07-30T15:15:38;3.20;;;0.95;;
36575;SDS011;45700;50.930;5.168;2023-07-30T15:19:39;6.40;;;1.10;;
36575;SDS011;45700;50.930;5.168;2023-07-30T15:23:41;3.00;;;0.80;;
36575;SDS011;45700;50.930;5.168;2023-07-30T15:27:43;4.65;;;1.02;;
36575;SDS011;45700;50.930;5.168;2023-07-30T15:31:44;4.60;;;0.95;;
36575;SDS011;45700;50.930;5.168;2023-07-30T15:35:45;2.30;;;0.65;;
36575;SDS011;45700;50.930;5.168;2023-07-30T15:39:46;2.38;;;0.90;;
36575;SDS011;45700;50.930;5.168;2023-07-30T15:43:47;3.13;;;1.17;;
36575;SDS011;45700;50.930;5.168;2023-07-30T15:47:48;2.40;;;0.93;;
36575;SDS011;45700;50.930;5.168;2023-07-30T15:51:49;4.75;;;0.75;;
36575;SDS011;45700;50.930;5.168;2023-07-30T15:55:51;3.72;;;0.90;;
36575;SDS011;45700;50.930;5.168;2023-07-30T15:59:52;7.55;;;1.02;;
36575;SDS011;45700;50.930;5.168;2023-07-30T16:03:53;2.72;;;0.80;;
36575;SDS011;45700;50.930;5.168;2023-07-30T16:07:54;2.97;;;1.15;;
36575;SDS011;45700;50.930;5.168;2023-07-30T16:11:55;3.08;;;1.20;;
36575;SDS011;45700;50.930;5.168;2023-07-30T16:15:56;7.47;;;1.48;;
36575;SDS011;45700;50.930;5.168;2023-07-30T16:20:07;4.13;;;1.60;;
36575;SDS011;45700;50.930;5.168;2023-07-30T16:24:08;4.22;;;1.63;;
36575;SDS011;45700;50.930;5.168;2023-07-30T16:28:09;4.13;;;1.10;;
36575;SDS011;45700;50.930;5.168;2023-07-30T16:32:10;4.47;;;1.70;;
36575;SDS011;45700;50.930;5.168;2023-07-30T16:36:11;4.78;;;1.10;;
36575;SDS011;45700;50.930;5.168;2023-07-30T16:40:12;4.72;;;1.50;;
36575;SDS011;45700;50.930;5.168;2023-07-30T16:44:14;2.35;;;1.40;;
36575;SDS011;45700;50.930;5.168;2023-07-30T16:48:15;7.35;;;1.10;;
36575;SDS011;45700;50.930;5.168;2023-07-30T16:52:17;5.70;;;1.50;;
36575;SDS011;45700;50.930;5.168;2023-07-30T16:56:18;5.90;;;1.65;;
36575;SDS011;45700;50.930;5.168;2023-07-30T17:00:19;5.10;;;1.20;;
36575;SDS011;45700;50.930;5.168;2023-07-30T17:04:20;9.05;;;1.60;;
36575;SDS011;45700;50.930;5.168;2023-07-30T17:08:21;4.53;;;1.65;;
36575;SDS011;45700;50.930;5.168;2023-07-30T17:12:22;2.63;;;1.38;;
36575;SDS011;45700;50.930;5.168;2023-07-30T17:16:23;4.93;;;1.65;;
36575;SDS011;45700;50.930;5.168;2023-07-30T17:20:24;5.20;;;1.73;;
36575;SDS011;45700;50.930;5.168;2023-07-30T17:24:25;6.93;;;1.23;;
36575;SDS011;45700;50.930;5.168;2023-07-30T17:28:26;4.47;;;1.40;;
36575;SDS011;45700;50.930;5.168;2023-07-30T17:32:31;3.70;;;1.60;;
36575;SDS011;45700;50.930;5.168;2023-07-30T17:36:32;3.63;;;1.38;;
36575;SDS011;45700;50.930;5.168;2023-07-30T17:40:34;4.82;;;1.27;;
36575;SDS011;45700;50.930;5.168;2023-07-30T17:44:36;3.10;;;1.60;;
36575;SDS011;45700;50.930;5.168;2023-07-30T17:48:37;4.13;;;1.40;;
36575;SDS011;45700;50.930;5.168;2023-07-30T17:52:38;7.70;;;1.83;;
36575;SDS011;45700;50.930;5.168;2023-07-30T17:56:39;5.03;;;2.00;;
36575;SDS011;45700;50.930;5.168;2023-07-30T18:00:40;8.07;;;2.65;;
36575;SDS011;45700;50.930;5.168;2023-07-30T18:04:43;4.97;;;2.15;;
36575;SDS011;45700;50.930;5.168;2023-07-30T18:08:44;6.38;;;2.10;;
36575;SDS011;45700;50.930;5.168;2023-07-30T18:12:45;5.13;;;2.10;;
36575;SDS011;45700;50.930;5.168;2023-07-30T18:16:46;7.72;;;2.03;;
36575;SDS011;45700;50.930;5.168;2023-07-30T18:20:47;5.20;;;1.92;;
36575;SDS011;45700;50.930;5.168;2023-07-30T18:24:48;5.00;;;2.03;;
36575;SDS011;45700;50.930;5.168;2023-07-30T18:28:49;6.85;;;2.20;;
36575;SDS011;45700;50.930;5.168;2023-07-30T18:32:51;5.03;;;1.95;;
36575;SDS011;45700;50.930;5.168;2023-07-30T18:36:52;5.38;;;1.90;;
36575;SDS011;45700;50.930;5.168;2023-07-30T18:40:53;8.15;;;2.22;;
36575;SDS011;45700;50.930;5.168;2023-07-30T18:44:55;4.82;;;2.28;;
36575;SDS011;45700;50.930;5.168;2023-07-30T18:48:56;4.38;;;2.13;;
36575;SDS011;45700;50.930;5.168;2023-07-30T18:52:57;6.57;;;2.20;;
36575;SDS011;45700;50.930;5.168;2023-07-30T18:56:58;8.20;;;2.05;;
36575;SDS011;45700;50.930;5.168;2023-07-30T19:00:59;8.45;;;2.42;;
36575;SDS011;45700;50.930;5.168;2023-07-30T19:05:00;6.68;;;2.17;;
36575;SDS011;45700;50.930;5.168;2023-07-30T19:09:01;6.22;;;2.70;;
36575;SDS011;45700;50.930;5.168;2023-07-30T19:13:03;6.15;;;2.78;;
36575;SDS011;45700;50.930;5.168;2023-07-30T19:17:04;4.22;;;2.28;;
36575;SDS011;45700;50.930;5.168;2023-07-30T19:21:05;4.22;;;2.30;;
36575;SDS011;45700;50.930;5.168;2023-07-30T19:25:06;7.15;;;2.95;;
36575;SDS011;45700;50.930;5.168;2023-07-30T19:29:07;4.10;;;2.10;;
36575;SDS011;45700;50.930;5.168;2023-07-30T19:33:08;6.93;;;2.28;;
36575;SDS011;45700;50.930;5.168;2023-07-30T19:37:09;7.25;;;2.05;;
36575;SDS011;45700;50.930;5.168;2023-07-30T19:41:10;3.80;;;1.70;;
36575;SDS011;45700;50.930;5.168;2023-07-30T19:45:11;5.15;;;2.10;;
36575;SDS011;45700;50.930;5.168;2023-07-30T19:49:12;9.50;;;2.30;;
36575;SDS011;45700;50.930;5.168;2023-07-30T19:53:13;6.70;;;2.10;;
36575;SDS011;45700;50.930;5.168;2023-07-30T19:57:14;7.05;;;1.70;;
36575;SDS011;45700;50.930;5.168;2023-07-30T20:01:15;3.95;;;1.75;;
36575;SDS011;45700;50.930;5.168;2023-07-30T20:05:16;6.15;;;2.58;;
36575;SDS011;45700;50.930;5.168;2023-07-30T20:09:17;7.13;;;2.70;;
36575;SDS011;45700;50.930;5.168;2023-07-30T20:13:18;3.20;;;2.03;;
36575;SDS011;45700;50.930;5.168;2023-07-30T20:17:19;7.03;;;2.30;;
36575;SDS011;45700;50.930;5.168;2023-07-30T20:21:20;6.45;;;2.00;;
36575;SDS011;45700;50.930;5.168;2023-07-30T20:25:23;5.32;;;2.30;;
36575;SDS011;45700;50.930;5.168;2023-07-30T20:29:24;7.38;;;2.05;;
36575;SDS011;45700;50.930;5.168;2023-07-30T20:33:24;7.15;;;2.20;;
36575;SDS011;45700;50.930;5.168;2023-07-30T20:37:26;4.25;;;2.70;;
36575;SDS011;45700;50.930;5.168;2023-07-30T20:41:27;6.03;;;2.10;;
36575;SDS011;45700;50.930;5.168;2023-07-30T20:45:28;6.28;;;2.17;;
36575;SDS011;45700;50.930;5.168;2023-07-30T20:49:29;9.75;;;2.55;;
36575;SDS011;45700;50.930;5.168;2023-07-30T20:53:33;2.95;;;1.85;;
36575;SDS011;45700;50.930;5.168;2023-07-30T20:57:34;6.15;;;2.30;;
36575;SDS011;45700;50.930;5.168;2023-07-30T21:01:35;3.63;;;1.50;;
36575;SDS011;45700;50.930;5.168;2023-07-30T21:05:36;8.27;;;1.73;;
36575;SDS011;45700;50.930;5.168;2023-07-30T21:09:37;6.07;;;2.25;;
36575;SDS011;45700;50.930;5.168;2023-07-30T21:13:38;7.72;;;1.73;;
36575;SDS011;45700;50.930;5.168;2023-07-30T21:17:39;5.05;;;1.52;;
36575;SDS011;45700;50.930;5.168;2023-07-30T21:21:40;7.90;;;1.88;;
36575;SDS011;45700;50.930;5.168;2023-07-30T21:25:41;5.38;;;2.47;;
36575;SDS011;45700;50.930;5.168;2023-07-30T21:29:42;8.45;;;2.53;;
36575;SDS011;45700;50.930;5.168;2023-07-30T21:33:44;7.82;;;2.28;;
36575;SDS011;45700;50.930;5.168;2023-07-30T21:37:45;5.65;;;1.90;;
36575;SDS011;45700;50.930;5.168;2023-07-30T21:41:46;5.80;;;1.80;;
36575;SDS011;45700;50.930;5.168;2023-07-30T21:45:54;8.27;;;2.10;;
36575;SDS011;45700;50.930;5.168;2023-07-30T21:49:55;6.95;;;1.88;;
36575;SDS011;45700;50.930;5.168;2023-07-30T21:53:56;7.03;;;1.85;;
36575;SDS011;45700;50.930;5.168;2023-07-30T21:57:57;6.53;;;1.75;;
36575;SDS011;45700;50.930;5.168;2023-07-30T22:01:58;9.23;;;2.35;;
36575;SDS011;45700;50.930;5.168;2023-07-30T22:05:59;7.05;;;2.05;;
36575;SDS011;45700;50.930;5.168;2023-07-30T22:10:00;9.80;;;2.45;;
36575;SDS011;45700;50.930;5.168;2023-07-30T22:14:01;10.43;;;2.42;;
36575;SDS011;45700;50.930;5.168;2023-07-30T22:18:06;8.15;;;2.80;;
36575;SDS011;45700;50.930;5.168;2023-07-30T22:22:07;7.95;;;2.22;;
36575;SDS011;45700;50.930;5.168;2023-07-30T22:26:08;9.90;;;2.30;;
36575;SDS011;45700;50.930;5.168;2023-07-30T22:30:10;8.98;;;2.08;;
36575;SDS011;45700;50.930;5.168;2023-07-30T22:34:11;11.45;;;2.13;;
36575;SDS011;45700;50.930;5.168;2023-07-30T22:38:12;10.77;;;2.67;;
36575;SDS011;45700;50.930;5.168;2023-07-30T22:42:13;5.18;;;1.92;;
36575;SDS011;45700;50.930;5.168;2023-07-30T22:46:14;6.82;;;2.15;;
36575;SDS011;45700;50.930;5.168;2023-07-30T22:50:15;6.13;;;1.77;;
36575;SDS011;45700;50.930;5.168;2023-07-30T22:54:16;11.13;;;1.83;;
36575;SDS011;45700;50.930;5.168;2023-07-30T22:58:17;7.50;;;2.15;;
36575;SDS011;45700;50.930;5.168;2023-07-30T23:02:18;11.35;;;2.30;;
36575;SDS011;45700;50.930;5.168;2023-07-30T23:06:19;7.25;;;2.05;;
36575;SDS011;45700;50.930;5.168;2023-07-30T23:10:20;5.15;;;2.13;;
36575;SDS011;45700;50.930;5.168;2023-07-30T23:14:21;8.40;;;1.85;;
36575;SDS011;45700;50.930;5.168;2023-07-30T23:18:22;5.03;;;1.35;;
36575;SDS011;45700;50.930;5.168;2023-07-30T23:22:23;10.07;;;2.33;;
36575;SDS011;45700;50.930;5.168;2023-07-30T23:26:24;3.17;;;1.65;;
36575;SDS011;45700;50.930;5.168;2023-07-30T23:30:25;14.88;;;3.75;;
36575;SDS011;45700;50.930;5.168;2023-07-30T23:34:26;13.05;;;2.35;;
36575;SDS011;45700;50.930;5.168;2023-07-30T23:38:27;7.18;;;1.63;;
36575;SDS011;45700;50.930;5.168;2023-07-30T23:42:28;7.68;;;2.22;;
36575;SDS011;45700;50.930;5.168;2023-07-30T23:46:29;11.30;;;3.40;;
36575;SDS011;45700;50.930;5.168;2023-07-30T23:50:30;7.78;;;1.95;;
36575;SDS011;45700;50.930;5.168;2023-07-30T23:54:31;8.43;;;2.15;;
36575;SDS011;45700;50.930;5.168;2023-07-30T23:58:32;8.40;;;2.15;;
